地図

経路データ

SID SEASON NUMBER BASIN SUBBASIN NAME ISO_TIME NATURE LAT LON WMO_WIND WMO_PRES WMO_AGENCY TRACK_TYPE DIST2LAND LANDFALL IFLAG USA_AGENCY USA_ATCF_ID USA_LAT USA_LON USA_RECORD USA_STATUS USA_WIND USA_PRES USA_SSHS USA_R34_NE USA_R34_SE USA_R34_SW USA_R34_NW USA_R50_NE USA_R50_SE USA_R50_SW USA_R50_NW USA_R64_NE USA_R64_SE USA_R64_SW USA_R64_NW USA_POCI USA_ROCI USA_RMW USA_EYE TOKYO_LAT TOKYO_LON TOKYO_GRADE TOKYO_WIND TOKYO_PRES TOKYO_R50_DIR TOKYO_R50_LONG TOKYO_R50_SHORT TOKYO_R30_DIR TOKYO_R30_LONG TOKYO_R30_SHORT TOKYO_LAND CMA_LAT CMA_LON CMA_CAT CMA_WIND CMA_PRES HKO_LAT HKO_LON HKO_CAT HKO_WIND HKO_PRES NEWDELHI_LAT NEWDELHI_LON NEWDELHI_GRADE NEWDELHI_WIND NEWDELHI_PRES NEWDELHI_CI NEWDELHI_DP NEWDELHI_POCI REUNION_LAT REUNION_LON REUNION_TYPE REUNION_WIND REUNION_PRES REUNION_TNUM REUNION_CI REUNION_RMW REUNION_R34_NE REUNION_R34_SE REUNION_R34_SW REUNION_R34_NW REUNION_R50_NE REUNION_R50_SE REUNION_R50_SW REUNION_R50_NW REUNION_R64_NE REUNION_R64_SE REUNION_R64_SW REUNION_R64_NW BOM_LAT BOM_LON BOM_TYPE BOM_WIND BOM_PRES BOM_TNUM BOM_CI BOM_RMW BOM_R34_NE BOM_R34_SE BOM_R34_SW BOM_R34_NW BOM_R50_NE BOM_R50_SE BOM_R50_SW BOM_R50_NW BOM_R64_NE BOM_R64_SE BOM_R64_SW BOM_R64_NW BOM_ROCI BOM_POCI BOM_EYE BOM_POS_METHOD BOM_PRES_METHOD NADI_LAT NADI_LON NADI_CAT NADI_WIND NADI_PRES WELLINGTON_LAT WELLINGTON_LON WELLINGTON_WIND WELLINGTON_PRES DS824_LAT DS824_LON DS824_STAGE DS824_WIND DS824_PRES TD9636_LAT TD9636_LON TD9636_STAGE TD9636_WIND TD9636_PRES TD9635_LAT TD9635_LON TD9635_WIND TD9635_PRES TD9635_ROCI NEUMANN_LAT NEUMANN_LON NEUMANN_CLASS NEUMANN_WIND NEUMANN_PRES MLC_LAT MLC_LON MLC_CLASS MLC_WIND MLC_PRES USA_GUST BOM_GUST BOM_GUST_PER REUNION_GUST REUNION_GUST_PER USA_SEAHGT USA_SEARAD_NE USA_SEARAD_SE USA_SEARAD_SW USA_SEARAD_NW STORM_SPEED STORM_DIR
1932201N20088 1932 36 NI BB NOT_NAMED 1932-07-19 00:00:00 TS 19.9000 88.3000 main 162 156 _________O____ -1 19.9000 88.3000 TC 30 1 326
1932201N20088 1932 36 NI BB NOT_NAMED 1932-07-19 03:00:00 TS 19.9567 88.2667 main 156 141 _________PO___ -1 19.9850 88.2500 TC 30 19.9000 88.3000 1 2 335
1932201N20088 1932 36 NI BB NOT_NAMED 1932-07-19 06:00:00 TS 20.0763 88.2169 main 141 136 _________OP___ -1 20.1000 88.2000 TC 30 20.0406 88.2423 1 3 340
1932201N20088 1932 36 NI BB NOT_NAMED 1932-07-19 09:00:00 TS 20.2222 88.1661 main 136 122 _________PP___ -1 20.2575 88.1500 TC 30 20.1750 88.1876 1 3 343
1932201N20088 1932 36 NI BB NOT_NAMED 1932-07-19 12:00:00 TS 20.3484 88.1196 main 122 119 _________OP___ -1 20.4000 88.1000 TC 30 20.2969 88.1391 1 2 337
1932201N20088 1932 36 NI BB NOT_NAMED 1932-07-19 15:00:00 TS 20.4288 88.0712 main 119 106 _________PO___ -1 20.4575 88.0425 TC 30 20.4000 88.1000 1 2 331
1932201N20088 1932 36 NI BB NOT_NAMED 1932-07-19 18:00:00 TS 20.4906 88.0359 main 106 104 _________OP___ -1 20.5000 88.0000 TC 30 20.4812 88.0718 1 1 347
1932201N20088 1932 36 NI BB NOT_NAMED 1932-07-19 21:00:00 TS 20.5675 88.0249 main 104 102 _________PP___ -1 20.5850 88.0000 TC 30 20.5500 88.0499 1 2 0
1932201N20088 1932 36 NI BB NOT_NAMED 1932-07-20 00:00:00 TS 20.6594 88.0140 main 102 91 _________OP___ -1 20.7000 88.0000 TC 30 20.6187 88.0280 1 2 347
1932201N20088 1932 36 NI BB NOT_NAMED 1932-07-20 03:00:00 TS 20.7750 87.9788 main 91 84 _________PO___ -1 20.8500 87.9575 TC 30 20.7000 88.0000 1 3 343
1932201N20088 1932 36 NI BB NOT_NAMED 1932-07-20 06:00:00 TS 20.9073 87.9286 main 84 73 _________OP___ -1 21.0000 87.9000 TC 30 20.8147 87.9572 1 3 339
1932201N20088 1932 36 NI BB NOT_NAMED 1932-07-20 09:00:00 TS 21.0250 87.8788 main 73 63 _________PP___ -1 21.1075 87.8500 TC 30 20.9425 87.9075 1 2 337
1932201N20088 1932 36 NI BB NOT_NAMED 1932-07-20 12:00:00 TS 21.1370 87.8270 main 67 55 _________OP___ -1 21.2000 87.8000 TC 30 21.0741 87.8541 1 2 337
1932201N20088 1932 36 NI BB NOT_NAMED 1932-07-20 15:00:00 TS 21.2500 87.7750 main 44 44 _________PO___ -1 21.3000 87.7500 TC 30 21.2000 87.8000 1 2 346
1932201N20088 1932 36 NI BB NOT_NAMED 1932-07-20 18:00:00 TS 21.3470 87.7734 main 44 33 _________OP___ -1 21.4000 87.7000 TC 30 21.2941 87.8467 1 2 13
1932201N20088 1932 36 NI BB NOT_NAMED 1932-07-20 21:00:00 TS 21.4265 87.8054 main 33 22 _________PP___ -1 21.4696 87.7320 TC 30 21.3833 87.8787 1 2 343
1932201N20088 1932 36 NI BB NOT_NAMED 1932-07-21 00:00:00 TS 21.5405 87.7107 main 22 0 _________OP___ -1 21.6000 87.6000 TC 30 21.4809 87.8214 1 5 308
1932201N20088 1932 36 NI BB NOT_NAMED 1932-07-21 03:00:00 TS 21.7539 87.3492 main 0 0 _________PO___ -1 21.9077 87.0983 TC 30 21.6000 87.6000 1 10 297
1932201N20088 1932 36 NI BB NOT_NAMED 1932-07-21 06:00:00 TS 21.9814 86.7637 main 0 0 _________OP___ -1 22.2000 86.4000 TC 30 21.7627 87.1274 1 12 287
1932201N20088 1932 36 NI BB NOT_NAMED 1932-07-21 09:00:00 TS 22.1120 86.1014 main 0 0 _________PP___ -1 22.2799 85.7143 TC 30 21.9442 86.4885 1 13 280
1932201N20088 1932 36 NI BB NOT_NAMED 1932-07-21 12:00:00 TS 22.2141 85.3777 main 0 0 _________OP___ -1 22.3000 85.0000 TC 30 22.1282 85.7553 1 14 280
1932201N20088 1932 36 NI BB NOT_NAMED 1932-07-21 15:00:00 TS 22.3424 84.6462 main 0 0 _________PO___ -1 22.3848 84.2924 TC 30 22.3000 85.0000 1 14 281
1932201N20088 1932 36 NI BB NOT_NAMED 1932-07-21 18:00:00 TS 22.4682 83.9275 main 0 0 _________OP___ -1 22.5000 83.6000 TC 30 22.4364 84.2549 1 14 281
1932201N20088 1932 36 NI BB NOT_NAMED 1932-07-21 21:00:00 TS 22.6047 83.1951 main 0 0 _________PP___ -1 22.6503 82.8753 TC 30 22.5592 83.5150 1 13 282
1932201N20088 1932 36 NI BB NOT_NAMED 1932-07-22 00:00:00 TS 22.7386 82.5713 main 0 0 _________OP___ -1 22.8000 82.3000 TC 30 22.6772 82.8425 1 10 284
1932201N20088 1932 36 NI BB NOT_NAMED 1932-07-22 03:00:00 TS 22.8460 82.1661 main 0 0 _________PO___ -1 22.8920 82.0322 TC 30 22.8000 82.3000 1 6 291
1932201N20088 1932 36 NI BB NOT_NAMED 1932-07-22 06:00:00 TS 22.9644 81.9273 main 0 0 _________OP___ -1 23.0000 81.9000 TC 30 22.9289 81.9547 1 5 304
1932201N20088 1932 36 NI BB NOT_NAMED 1932-07-22 09:00:00 TS 23.1265 81.7171 main 0 0 _________PP___ -1 23.1850 81.6925 TC 30 23.0680 81.7416 1 5 315
1932201N20088 1932 36 NI BB NOT_NAMED 1932-07-22 12:00:00 TS 23.3116 81.5539 main 0 0 _________OP___ -1 23.4000 81.5000 TC 30 23.2232 81.6078 1 5 324
1932201N20088 1932 36 NI BB NOT_NAMED 1932-07-22 15:00:00 TS 23.4962 81.4212 main 0 0 _________PO___ -1 23.5925 81.3424 TC 30 23.4000 81.5000 1 4 328
1932201N20088 1932 36 NI BB NOT_NAMED 1932-07-22 18:00:00 TS 23.6867 81.2998 main 0 0 _________OP___ -1 23.8000 81.2000 TC 30 23.6017 81.3746 1 5 330
1932201N20088 1932 36 NI BB NOT_NAMED 1932-07-22 21:00:00 TS 23.9101 81.1581 main 0 0 _________PP___ -1 24.0400 81.0527 TC 30 23.8234 81.2284 1 5 330
1932201N20088 1932 36 NI BB NOT_NAMED 1932-07-23 00:00:00 TS 24.1390 81.0120 main 0 0 _________OP___ -1 24.3000 80.9000 TC 30 24.0584 81.0679 1 5 329
1932201N20088 1932 36 NI BB NOT_NAMED 1932-07-23 03:00:00 NR 24.3000 80.9000 main 0 __________O___ -1 TC 24.3000 80.9000 1 4 326

IBTrACS Databaseについて

本データベースは、米国NOAAが公開する1842年以降の世界の熱帯低気圧のベストトラックデータアーカイブInternational Best Track Archive for Climate Stewardship (IBTrACS)を、ウェブで閲覧しやすい形式に変換したものです。

最終更新日:2021-10-08